QFA001 YBBN-YSSY
Flight info
| Callsign | QFA001 |
|---|---|
| Flight time | 1h 15m |
| Altitude | 40000 |
| Route | SANEG H91 IGDAM H652 BOREE |
| Aircraft | A388/J-SADE2E3FGHIJ3J4J5M1RWXY/LB1D1 |
Departure
| Time | 2026-05-06 11:49 |
|---|---|
| Airport | Brisbane International Airport (YBBN) |
Arrival
| Time | 2026-05-06 13:05 |
|---|---|
| Airport | Sydney Kingsford Smith International Airport (YSSY) |
| Time | Latitude | Longitude | Altitude | Speed | Heading |
|---|---|---|---|---|---|
| 2026-05-06 11:27 | -27.40176 | 153.11252 | 23 ft | 0 kts | 298° |
| 2026-05-06 11:33 | -27.40177 | 153.11253 | 23 ft | 1 kts | 298° |
| 2026-05-06 11:33 | -27.40180 | 153.11260 | 27 ft | 1 kts | 298° |
| 2026-05-06 11:33 | -27.40183 | 153.11266 | 27 ft | 1 kts | 298° |
| 2026-05-06 11:34 | -27.40188 | 153.11277 | 27 ft | 2 kts | 298° |
| 2026-05-06 11:34 | -27.40195 | 153.11292 | 24 ft | 2 kts | 298° |
| 2026-05-06 11:34 | -27.40206 | 153.11306 | 26 ft | 2 kts | 324° |
| 2026-05-06 11:34 | -27.40221 | 153.11310 | 26 ft | 2 kts | 2° |
| 2026-05-06 11:35 | -27.40232 | 153.11305 | 27 ft | 0 kts | 28° |
| 2026-05-06 11:38 | -27.40213 | 153.11322 | 23 ft | 6 kts | 51° |
| 2026-05-06 11:38 | -27.40195 | 153.11366 | 26 ft | 7 kts | 91° |
| 2026-05-06 11:39 | -27.40207 | 153.11433 | 25 ft | 16 kts | 109° |
| 2026-05-06 11:39 | -27.40175 | 153.11518 | 26 ft | 12 kts | 37° |
| 2026-05-06 11:39 | -27.40093 | 153.11563 | 25 ft | 15 kts | 26° |
| 2026-05-06 11:39 | -27.39973 | 153.11631 | 26 ft | 25 kts | 28° |
| 2026-05-06 11:40 | -27.39790 | 153.11739 | 24 ft | 32 kts | 26° |
| 2026-05-06 11:40 | -27.39615 | 153.11838 | 24 ft | 25 kts | 27° |
| 2026-05-06 11:40 | -27.39461 | 153.11925 | 26 ft | 24 kts | 26° |
| 2026-05-06 11:40 | -27.39312 | 153.12009 | 26 ft | 23 kts | 27° |
| 2026-05-06 11:41 | -27.39174 | 153.12088 | 27 ft | 22 kts | 27° |
| 2026-05-06 11:41 | -27.39038 | 153.12167 | 25 ft | 22 kts | 27° |
| 2026-05-06 11:41 | -27.38903 | 153.12245 | 27 ft | 22 kts | 27° |
| 2026-05-06 11:41 | -27.38767 | 153.12321 | 23 ft | 22 kts | 26° |
| 2026-05-06 11:42 | -27.38626 | 153.12401 | 27 ft | 23 kts | 27° |
| 2026-05-06 11:42 | -27.38482 | 153.12484 | 25 ft | 23 kts | 27° |
| 2026-05-06 11:42 | -27.38335 | 153.12569 | 24 ft | 24 kts | 27° |
| 2026-05-06 11:42 | -27.38200 | 153.12648 | 27 ft | 24 kts | 27° |
| 2026-05-06 11:43 | -27.38059 | 153.12729 | 26 ft | 24 kts | 26° |
| 2026-05-06 11:43 | -27.37906 | 153.12813 | 27 ft | 24 kts | 26° |
| 2026-05-06 11:43 | -27.37756 | 153.12898 | 25 ft | 24 kts | 27° |
| 2026-05-06 11:44 | -27.37462 | 153.13067 | 26 ft | 23 kts | 25° |
| 2026-05-06 11:44 | -27.37317 | 153.13149 | 27 ft | 23 kts | 30° |
| 2026-05-06 11:44 | -27.37288 | 153.13243 | 26 ft | 12 kts | 102° |
| 2026-05-06 11:44 | -27.37297 | 153.13283 | 25 ft | 0 kts | 114° |
| 2026-05-06 11:45 | -27.37299 | 153.13289 | 27 ft | 6 kts | 114° |
| 2026-05-06 11:46 | -27.37317 | 153.13331 | 26 ft | 5 kts | 116° |
| 2026-05-06 11:46 | -27.37325 | 153.13350 | 26 ft | 0 kts | 120° |
| 2026-05-06 11:47 | -27.37326 | 153.13350 | 26 ft | 0 kts | 120° |
| 2026-05-06 11:47 | -27.37385 | 153.13412 | 26 ft | 21 kts | 159° |
| 2026-05-06 11:48 | -27.37506 | 153.13409 | 26 ft | 3 kts | 208° |
| 2026-05-06 11:48 | -27.37506 | 153.13408 | 26 ft | 0 kts | 208° |
| 2026-05-06 11:48 | -27.37750 | 153.13268 | 25 ft | 82 kts | 207° |
| 2026-05-06 11:49 | -27.38477 | 153.12854 | 28 ft | 148 kts | 206° |
| 2026-05-06 11:49 | -27.39517 | 153.12282 | 167 ft | 175 kts | 207° |
| 2026-05-06 11:49 | -27.40590 | 153.11640 | 660 ft | 183 kts | 205° |
| 2026-05-06 11:49 | -27.41790 | 153.11024 | 920 ft | 201 kts | 199° |
| 2026-05-06 11:50 | -27.43213 | 153.10664 | 1101 ft | 216 kts | 186° |
| 2026-05-06 11:50 | -27.44367 | 153.10535 | 1246 ft | 234 kts | 184° |
| 2026-05-06 11:50 | -27.46037 | 153.10370 | 1552 ft | 250 kts | 184° |
| 2026-05-06 11:50 | -27.47794 | 153.10149 | 2108 ft | 256 kts | 186° |
| 2026-05-06 11:51 | -27.49573 | 153.09881 | 2878 ft | 259 kts | 187° |
| 2026-05-06 11:51 | -27.51369 | 153.09587 | 3590 ft | 263 kts | 188° |
| 2026-05-06 11:51 | -27.53138 | 153.09288 | 4310 ft | 265 kts | 188° |
| 2026-05-06 11:51 | -27.55009 | 153.08969 | 5080 ft | 268 kts | 189° |
| 2026-05-06 11:52 | -27.56859 | 153.08652 | 5818 ft | 270 kts | 189° |
| 2026-05-06 11:52 | -27.58728 | 153.08332 | 6553 ft | 273 kts | 189° |
| 2026-05-06 11:52 | -27.60614 | 153.08010 | 7237 ft | 276 kts | 189° |
| 2026-05-06 11:52 | -27.61872 | 153.07796 | 7665 ft | 279 kts | 190° |
| 2026-05-06 11:53 | -27.64004 | 153.07433 | 8430 ft | 282 kts | 190° |
| 2026-05-06 11:53 | -27.66016 | 153.07090 | 9132 ft | 286 kts | 191° |
| 2026-05-06 11:53 | -27.68015 | 153.06748 | 9817 ft | 290 kts | 191° |
| 2026-05-06 11:53 | -27.70052 | 153.06400 | 10328 ft | 301 kts | 191° |
| 2026-05-06 11:54 | -27.72161 | 153.06037 | 10490 ft | 320 kts | 191° |
| 2026-05-06 11:54 | -27.74391 | 153.05654 | 10653 ft | 338 kts | 191° |
| 2026-05-06 11:54 | -27.76740 | 153.05253 | 11077 ft | 345 kts | 191° |
| 2026-05-06 11:54 | -27.79126 | 153.04848 | 11631 ft | 349 kts | 191° |
| 2026-05-06 11:55 | -27.81527 | 153.04375 | 12171 ft | 351 kts | 196° |
| 2026-05-06 11:55 | -27.83855 | 153.03522 | 12742 ft | 352 kts | 205° |
| 2026-05-06 11:55 | -27.86130 | 153.02497 | 13279 ft | 356 kts | 205° |
| 2026-05-06 11:55 | -27.88454 | 153.01474 | 13847 ft | 360 kts | 204° |
| 2026-05-06 11:56 | -27.90806 | 153.00446 | 14361 ft | 363 kts | 205° |
| 2026-05-06 11:56 | -27.93172 | 152.99413 | 14884 ft | 366 kts | 205° |
| 2026-05-06 11:56 | -27.95554 | 152.98372 | 15391 ft | 369 kts | 205° |
| 2026-05-06 11:56 | -27.97957 | 152.97320 | 15896 ft | 372 kts | 205° |
| 2026-05-06 11:57 | -28.00378 | 152.96258 | 16390 ft | 374 kts | 205° |
| 2026-05-06 11:57 | -28.02820 | 152.95187 | 16883 ft | 377 kts | 205° |
| 2026-05-06 11:57 | -28.04444 | 152.94475 | 17217 ft | 379 kts | 205° |
| 2026-05-06 11:57 | -28.06917 | 152.93388 | 17709 ft | 382 kts | 205° |
| 2026-05-06 11:58 | -28.09407 | 152.92294 | 18182 ft | 385 kts | 205° |
| 2026-05-06 11:58 | -28.11912 | 152.91187 | 18636 ft | 388 kts | 206° |
| 2026-05-06 11:58 | -28.14428 | 152.90069 | 19066 ft | 389 kts | 206° |
| 2026-05-06 11:58 | -28.16950 | 152.88946 | 19493 ft | 391 kts | 206° |
| 2026-05-06 11:59 | -28.19494 | 152.87813 | 19897 ft | 393 kts | 206° |
| 2026-05-06 11:59 | -28.21938 | 152.86725 | 20295 ft | 395 kts | 207° |
| 2026-05-06 11:59 | -28.24507 | 152.85581 | 20700 ft | 397 kts | 207° |
| 2026-05-06 11:59 | -28.27087 | 152.84432 | 21112 ft | 399 kts | 207° |
| 2026-05-06 12:00 | -28.29678 | 152.83277 | 21518 ft | 401 kts | 207° |
| 2026-05-06 12:00 | -28.32288 | 152.82114 | 21938 ft | 403 kts | 207° |
| 2026-05-06 12:00 | -28.34875 | 152.80959 | 22352 ft | 405 kts | 208° |
| 2026-05-06 12:00 | -28.37381 | 152.79840 | 22750 ft | 407 kts | 207° |
| 2026-05-06 12:01 | -28.40026 | 152.78660 | 23107 ft | 410 kts | 208° |
| 2026-05-06 12:01 | -28.42686 | 152.77472 | 23481 ft | 412 kts | 208° |
| 2026-05-06 12:01 | -28.45356 | 152.76278 | 23863 ft | 414 kts | 208° |
| 2026-05-06 12:01 | -28.48039 | 152.75078 | 24215 ft | 415 kts | 208° |
| 2026-05-06 12:02 | -28.50739 | 152.73870 | 24535 ft | 417 kts | 208° |
| 2026-05-06 12:02 | -28.53441 | 152.72661 | 24856 ft | 419 kts | 208° |
| 2026-05-06 12:02 | -28.55971 | 152.71528 | 25177 ft | 420 kts | 208° |
| 2026-05-06 12:02 | -28.58761 | 152.70278 | 25541 ft | 422 kts | 208° |
| 2026-05-06 12:03 | -28.61495 | 152.69050 | 25877 ft | 425 kts | 208° |
| 2026-05-06 12:03 | -28.64254 | 152.67811 | 26233 ft | 427 kts | 208° |
| 2026-05-06 12:03 | -28.66944 | 152.66604 | 26612 ft | 429 kts | 208° |
| 2026-05-06 12:03 | -28.69816 | 152.65314 | 26994 ft | 431 kts | 209° |
| 2026-05-06 12:04 | -28.72608 | 152.64059 | 27384 ft | 433 kts | 209° |
| 2026-05-06 12:04 | -28.75423 | 152.62793 | 27770 ft | 436 kts | 209° |
| 2026-05-06 12:04 | -28.78230 | 152.61530 | 28159 ft | 438 kts | 209° |
| 2026-05-06 12:04 | -28.81091 | 152.60242 | 28568 ft | 440 kts | 209° |
| 2026-05-06 12:05 | -28.83952 | 152.58951 | 28977 ft | 442 kts | 210° |
| 2026-05-06 12:05 | -28.86718 | 152.57464 | 29344 ft | 438 kts | 216° |
| 2026-05-06 12:05 | -28.89306 | 152.55901 | 29716 ft | 441 kts | 216° |
| 2026-05-06 12:05 | -28.92159 | 152.54201 | 30076 ft | 445 kts | 215° |
| 2026-05-06 12:06 | -28.97664 | 152.50937 | 30042 ft | 443 kts | 216° |
| 2026-05-06 12:06 | -29.03119 | 152.47695 | 30043 ft | 444 kts | 216° |
| 2026-05-06 12:07 | -29.08567 | 152.44446 | 30037 ft | 444 kts | 216° |
| 2026-05-06 12:07 | -29.13881 | 152.41274 | 30036 ft | 443 kts | 216° |
| 2026-05-06 12:08 | -29.19348 | 152.38005 | 30042 ft | 443 kts | 216° |
| 2026-05-06 12:08 | -29.24818 | 152.34739 | 30042 ft | 443 kts | 214° |
| 2026-05-06 12:09 | -29.30342 | 152.31579 | 30052 ft | 445 kts | 213° |
| 2026-05-06 12:09 | -29.35841 | 152.28489 | 30044 ft | 443 kts | 215° |
| 2026-05-06 12:10 | -29.41217 | 152.25264 | 30045 ft | 442 kts | 216° |
| 2026-05-06 12:10 | -29.46643 | 152.21934 | 30042 ft | 442 kts | 216° |
| 2026-05-06 12:11 | -29.52049 | 152.18639 | 30069 ft | 445 kts | 213° |
| 2026-05-06 12:11 | -29.57975 | 152.16252 | 30051 ft | 454 kts | 205° |
| 2026-05-06 12:12 | -29.63971 | 152.14013 | 30052 ft | 452 kts | 207° |
| 2026-05-06 12:12 | -29.69828 | 152.11630 | 30046 ft | 452 kts | 208° |
| 2026-05-06 12:13 | -29.75742 | 152.09165 | 30070 ft | 452 kts | 208° |
| 2026-05-06 12:13 | -29.81048 | 152.06947 | 30046 ft | 451 kts | 208° |
| 2026-05-06 12:14 | -29.86940 | 152.04483 | 30046 ft | 452 kts | 208° |
| 2026-05-06 12:14 | -29.92673 | 152.02084 | 30045 ft | 451 kts | 208° |
| 2026-05-06 12:15 | -29.98703 | 151.99557 | 30058 ft | 451 kts | 207° |
| 2026-05-06 12:15 | -30.04572 | 151.97094 | 30047 ft | 452 kts | 207° |
| 2026-05-06 12:16 | -30.10476 | 151.94615 | 30047 ft | 451 kts | 207° |
| 2026-05-06 12:16 | -30.16383 | 151.92130 | 30044 ft | 452 kts | 208° |
| 2026-05-06 12:17 | -30.22183 | 151.89687 | 30045 ft | 452 kts | 208° |
| 2026-05-06 12:17 | -30.28100 | 151.87192 | 30044 ft | 452 kts | 208° |
| 2026-05-06 12:18 | -30.34005 | 151.84699 | 30042 ft | 451 kts | 208° |
| 2026-05-06 12:18 | -30.39897 | 151.82208 | 30045 ft | 452 kts | 208° |
| 2026-05-06 12:19 | -30.45804 | 151.79705 | 30038 ft | 452 kts | 207° |
| 2026-05-06 12:19 | -30.51709 | 151.77202 | 30041 ft | 452 kts | 207° |
| 2026-05-06 12:20 | -30.57615 | 151.74696 | 30038 ft | 452 kts | 207° |
| 2026-05-06 12:20 | -30.63048 | 151.72388 | 30033 ft | 452 kts | 207° |
| 2026-05-06 12:21 | -30.69057 | 151.69831 | 30033 ft | 453 kts | 207° |
| 2026-05-06 12:21 | -30.74976 | 151.67308 | 30034 ft | 454 kts | 207° |
| 2026-05-06 12:22 | -30.80887 | 151.64788 | 30037 ft | 453 kts | 207° |
| 2026-05-06 12:22 | -30.86773 | 151.62274 | 30037 ft | 453 kts | 207° |
| 2026-05-06 12:23 | -30.92703 | 151.59739 | 30032 ft | 455 kts | 206° |
| 2026-05-06 12:23 | -30.98823 | 151.57682 | 30033 ft | 460 kts | 200° |
| 2026-05-06 12:24 | -31.05037 | 151.55888 | 30032 ft | 459 kts | 202° |
| 2026-05-06 12:24 | -31.11191 | 151.53896 | 30033 ft | 458 kts | 203° |
| 2026-05-06 12:25 | -31.17321 | 151.51831 | 30033 ft | 458 kts | 202° |
| 2026-05-06 12:25 | -31.23451 | 151.49760 | 30028 ft | 458 kts | 202° |
| 2026-05-06 12:26 | -31.29542 | 151.47701 | 30025 ft | 458 kts | 202° |
| 2026-05-06 12:26 | -31.35665 | 151.45630 | 30048 ft | 458 kts | 202° |
| 2026-05-06 12:27 | -31.41795 | 151.43554 | 30030 ft | 458 kts | 202° |
| 2026-05-06 12:27 | -31.44760 | 151.42549 | 29857 ft | 456 kts | 202° |
| 2026-05-06 12:27 | -31.47802 | 151.41518 | 29586 ft | 453 kts | 202° |
| 2026-05-06 12:28 | -31.50823 | 151.40493 | 29309 ft | 451 kts | 202° |
| 2026-05-06 12:28 | -31.53835 | 151.39470 | 29028 ft | 449 kts | 202° |
| 2026-05-06 12:28 | -31.56829 | 151.38451 | 28769 ft | 447 kts | 202° |
| 2026-05-06 12:28 | -31.59809 | 151.37437 | 28528 ft | 445 kts | 202° |
| 2026-05-06 12:29 | -31.62784 | 151.36425 | 28261 ft | 443 kts | 202° |
| 2026-05-06 12:29 | -31.65751 | 151.35414 | 27997 ft | 442 kts | 202° |
| 2026-05-06 12:29 | -31.68658 | 151.34423 | 27748 ft | 440 kts | 202° |
| 2026-05-06 12:29 | -31.71594 | 151.33421 | 27479 ft | 438 kts | 202° |
| 2026-05-06 12:30 | -31.74518 | 151.32422 | 27219 ft | 437 kts | 202° |
| 2026-05-06 12:30 | -31.77433 | 151.31427 | 26973 ft | 435 kts | 202° |
| 2026-05-06 12:30 | -31.80332 | 151.30436 | 26741 ft | 433 kts | 202° |
| 2026-05-06 12:30 | -31.83225 | 151.29446 | 26497 ft | 432 kts | 202° |
| 2026-05-06 12:31 | -31.86104 | 151.28461 | 26250 ft | 430 kts | 202° |
| 2026-05-06 12:31 | -31.88974 | 151.27477 | 26003 ft | 429 kts | 202° |
| 2026-05-06 12:31 | -31.91834 | 151.26497 | 25759 ft | 427 kts | 202° |
| 2026-05-06 12:31 | -31.94674 | 151.25523 | 25520 ft | 425 kts | 202° |
| 2026-05-06 12:32 | -31.97512 | 151.24549 | 25283 ft | 424 kts | 202° |
| 2026-05-06 12:32 | -32.00339 | 151.23578 | 25047 ft | 422 kts | 202° |
| 2026-05-06 12:32 | -32.03152 | 151.22611 | 24837 ft | 420 kts | 202° |
| 2026-05-06 12:32 | -32.05952 | 151.21649 | 24606 ft | 419 kts | 202° |
| 2026-05-06 12:33 | -32.08705 | 151.20702 | 24368 ft | 418 kts | 202° |
| 2026-05-06 12:33 | -32.11493 | 151.19741 | 24136 ft | 416 kts | 202° |
| 2026-05-06 12:33 | -32.14266 | 151.18785 | 23908 ft | 415 kts | 202° |
| 2026-05-06 12:33 | -32.17033 | 151.17832 | 23696 ft | 414 kts | 202° |
| 2026-05-06 12:34 | -32.19794 | 151.16879 | 23419 ft | 412 kts | 202° |
| 2026-05-06 12:34 | -32.22539 | 151.15932 | 23135 ft | 410 kts | 202° |
| 2026-05-06 12:34 | -32.25284 | 151.14983 | 22610 ft | 410 kts | 202° |
| 2026-05-06 12:34 | -32.28023 | 151.14036 | 22036 ft | 409 kts | 202° |
| 2026-05-06 12:35 | -32.30702 | 151.13110 | 21534 ft | 406 kts | 201° |
| 2026-05-06 12:35 | -32.33372 | 151.12187 | 21027 ft | 403 kts | 201° |
| 2026-05-06 12:35 | -32.36051 | 151.11260 | 20539 ft | 400 kts | 201° |
| 2026-05-06 12:35 | -32.38715 | 151.10337 | 20045 ft | 397 kts | 201° |
| 2026-05-06 12:36 | -32.41354 | 151.09423 | 19568 ft | 394 kts | 201° |
| 2026-05-06 12:36 | -32.43971 | 151.08515 | 19092 ft | 391 kts | 201° |
| 2026-05-06 12:36 | -32.46583 | 151.07608 | 18625 ft | 389 kts | 200° |
| 2026-05-06 12:36 | -32.49139 | 151.06720 | 18138 ft | 386 kts | 200° |
| 2026-05-06 12:37 | -32.51710 | 151.05827 | 17611 ft | 384 kts | 200° |
| 2026-05-06 12:37 | -32.54261 | 151.04940 | 17096 ft | 381 kts | 200° |
| 2026-05-06 12:37 | -32.56795 | 151.04059 | 16590 ft | 378 kts | 200° |
| 2026-05-06 12:37 | -32.59310 | 151.03183 | 16081 ft | 375 kts | 200° |
| 2026-05-06 12:38 | -32.61809 | 151.02312 | 15597 ft | 373 kts | 200° |
| 2026-05-06 12:38 | -32.64288 | 151.01448 | 15102 ft | 370 kts | 200° |
| 2026-05-06 12:38 | -32.66754 | 151.00588 | 14629 ft | 368 kts | 199° |
| 2026-05-06 12:38 | -32.69209 | 150.99731 | 14160 ft | 365 kts | 199° |
| 2026-05-06 12:39 | -32.71635 | 150.98884 | 13672 ft | 362 kts | 199° |
| 2026-05-06 12:39 | -32.74043 | 150.98045 | 13235 ft | 359 kts | 199° |
| 2026-05-06 12:39 | -32.76421 | 150.97222 | 13091 ft | 354 kts | 197° |
| 2026-05-06 12:39 | -32.78858 | 150.96738 | 13084 ft | 357 kts | 186° |
| 2026-05-06 12:40 | -32.81358 | 150.96809 | 13079 ft | 361 kts | 175° |
| 2026-05-06 12:40 | -32.83843 | 150.97273 | 13081 ft | 362 kts | 173° |
| 2026-05-06 12:40 | -32.86331 | 150.97727 | 13081 ft | 362 kts | 174° |
| 2026-05-06 12:40 | -32.88820 | 150.98168 | 13081 ft | 362 kts | 174° |
| 2026-05-06 12:41 | -32.90470 | 150.98458 | 13080 ft | 361 kts | 174° |
| 2026-05-06 12:41 | -32.93768 | 150.99041 | 13083 ft | 361 kts | 174° |
| 2026-05-06 12:41 | -32.96258 | 150.99483 | 13077 ft | 361 kts | 174° |
| 2026-05-06 12:41 | -32.98744 | 150.99925 | 13076 ft | 361 kts | 174° |
| 2026-05-06 12:42 | -33.01212 | 151.00366 | 13072 ft | 361 kts | 174° |
| 2026-05-06 12:42 | -33.02912 | 151.00669 | 13079 ft | 361 kts | 174° |
| 2026-05-06 12:42 | -33.05400 | 151.01114 | 12903 ft | 362 kts | 174° |
| 2026-05-06 12:42 | -33.07858 | 151.01554 | 12655 ft | 360 kts | 174° |
| 2026-05-06 12:43 | -33.10332 | 151.01997 | 12395 ft | 359 kts | 174° |
| 2026-05-06 12:43 | -33.12804 | 151.02440 | 12147 ft | 357 kts | 174° |
| 2026-05-06 12:43 | -33.15253 | 151.02878 | 11892 ft | 356 kts | 174° |
| 2026-05-06 12:43 | -33.17697 | 151.03317 | 11649 ft | 354 kts | 174° |
| 2026-05-06 12:44 | -33.20132 | 151.03753 | 11404 ft | 353 kts | 174° |
| 2026-05-06 12:44 | -33.22559 | 151.04188 | 11156 ft | 352 kts | 174° |
| 2026-05-06 12:44 | -33.24979 | 151.04625 | 10913 ft | 351 kts | 174° |
| 2026-05-06 12:44 | -33.27375 | 151.05081 | 10787 ft | 345 kts | 174° |
| 2026-05-06 12:45 | -33.29706 | 151.05535 | 10682 ft | 334 kts | 174° |
| 2026-05-06 12:45 | -33.31960 | 151.05978 | 10568 ft | 321 kts | 175° |
| 2026-05-06 12:45 | -33.36255 | 151.06326 | 10259 ft | 303 kts | 180° |
| 2026-05-06 12:46 | -33.38357 | 151.06466 | 10019 ft | 300 kts | 181° |
| 2026-05-06 12:46 | -33.40444 | 151.06560 | 9857 ft | 298 kts | 182° |
| 2026-05-06 12:46 | -33.42499 | 151.06617 | 9526 ft | 302 kts | 182° |
| 2026-05-06 12:46 | -33.44620 | 151.06658 | 8855 ft | 310 kts | 182° |
| 2026-05-06 12:47 | -33.46840 | 151.06691 | 7835 ft | 328 kts | 182° |
| 2026-05-06 12:47 | -33.49190 | 151.06725 | 6929 ft | 343 kts | 182° |
| 2026-05-06 12:47 | -33.51570 | 151.06766 | 6430 ft | 341 kts | 181° |
| 2026-05-06 12:47 | -33.53914 | 151.06810 | 6161 ft | 330 kts | 181° |
| 2026-05-06 12:48 | -33.56162 | 151.06852 | 6023 ft | 316 kts | 182° |
| 2026-05-06 12:48 | -33.58301 | 151.06892 | 6003 ft | 300 kts | 182° |
| 2026-05-06 12:48 | -33.60334 | 151.06929 | 6007 ft | 286 kts | 182° |
| 2026-05-06 12:48 | -33.62302 | 151.06962 | 6003 ft | 280 kts | 182° |
| 2026-05-06 12:49 | -33.64248 | 151.06993 | 6006 ft | 280 kts | 182° |
| 2026-05-06 12:49 | -33.66202 | 151.07024 | 6003 ft | 281 kts | 182° |
| 2026-05-06 12:49 | -33.68044 | 151.07053 | 6005 ft | 281 kts | 182° |
| 2026-05-06 12:49 | -33.69834 | 151.07083 | 6002 ft | 281 kts | 182° |
| 2026-05-06 12:50 | -33.71795 | 151.07116 | 6001 ft | 281 kts | 182° |
| 2026-05-06 12:50 | -33.73751 | 151.07148 | 6004 ft | 281 kts | 182° |
| 2026-05-06 12:50 | -33.75707 | 151.07182 | 6001 ft | 281 kts | 182° |
| 2026-05-06 12:50 | -33.77656 | 151.07215 | 6002 ft | 280 kts | 182° |
| 2026-05-06 12:51 | -33.79611 | 151.07248 | 6005 ft | 280 kts | 182° |
| 2026-05-06 12:51 | -33.81502 | 151.07281 | 5999 ft | 281 kts | 182° |
| 2026-05-06 12:51 | -33.83463 | 151.07314 | 6002 ft | 281 kts | 182° |
| 2026-05-06 12:51 | -33.85426 | 151.07347 | 6002 ft | 281 kts | 182° |
| 2026-05-06 12:52 | -33.87382 | 151.07380 | 6000 ft | 282 kts | 182° |
| 2026-05-06 12:52 | -33.89342 | 151.07413 | 6002 ft | 282 kts | 182° |
| 2026-05-06 12:52 | -33.91254 | 151.07445 | 5999 ft | 282 kts | 182° |
| 2026-05-06 12:52 | -33.93159 | 151.07478 | 5998 ft | 282 kts | 182° |
| 2026-05-06 12:53 | -33.95121 | 151.07511 | 6000 ft | 282 kts | 182° |
| 2026-05-06 12:53 | -33.97083 | 151.07545 | 5999 ft | 283 kts | 182° |
| 2026-05-06 12:53 | -33.99056 | 151.07579 | 5869 ft | 283 kts | 182° |
| 2026-05-06 12:53 | -34.01039 | 151.07613 | 5586 ft | 286 kts | 182° |
| 2026-05-06 12:54 | -34.02997 | 151.07648 | 5431 ft | 281 kts | 182° |
| 2026-05-06 12:54 | -34.04947 | 151.07683 | 5293 ft | 278 kts | 182° |
| 2026-05-06 12:54 | -34.06864 | 151.07717 | 5194 ft | 271 kts | 182° |
| 2026-05-06 12:54 | -34.08634 | 151.07878 | 5003 ft | 247 kts | 173° |
| 2026-05-06 12:55 | -34.10249 | 151.08308 | 4726 ft | 237 kts | 169° |
| 2026-05-06 12:55 | -34.11888 | 151.08743 | 4649 ft | 243 kts | 170° |
| 2026-05-06 12:55 | -34.13542 | 151.09171 | 4546 ft | 244 kts | 170° |
| 2026-05-06 12:55 | -34.15208 | 151.09599 | 4421 ft | 244 kts | 170° |
| 2026-05-06 12:56 | -34.16858 | 151.10025 | 4284 ft | 243 kts | 170° |
| 2026-05-06 12:56 | -34.18485 | 151.10446 | 4145 ft | 242 kts | 170° |
| 2026-05-06 12:56 | -34.20109 | 151.10969 | 3976 ft | 243 kts | 157° |
| 2026-05-06 12:56 | -34.21385 | 151.12256 | 3913 ft | 231 kts | 124° |
| 2026-05-06 12:57 | -34.21871 | 151.13972 | 3820 ft | 208 kts | 89° |
| 2026-05-06 12:57 | -34.21787 | 151.15671 | 3687 ft | 200 kts | 82° |
| 2026-05-06 12:57 | -34.21702 | 151.17334 | 3538 ft | 198 kts | 83° |
| 2026-05-06 12:57 | -34.21591 | 151.18879 | 3403 ft | 195 kts | 73° |
| 2026-05-06 12:58 | -34.20933 | 151.20237 | 3238 ft | 186 kts | 35° |
| 2026-05-06 12:58 | -34.19790 | 151.20848 | 3113 ft | 178 kts | 11° |
| 2026-05-06 12:58 | -34.18608 | 151.21258 | 2996 ft | 176 kts | 12° |
| 2026-05-06 12:58 | -34.17432 | 151.21688 | 2995 ft | 176 kts | 12° |
| 2026-05-06 12:59 | -34.16254 | 151.22114 | 2995 ft | 177 kts | 12° |
| 2026-05-06 12:59 | -34.15124 | 151.22477 | 2995 ft | 175 kts | 6° |
| 2026-05-06 12:59 | -34.13877 | 151.22568 | 2995 ft | 173 kts | 353° |
| 2026-05-06 12:59 | -34.12746 | 151.22390 | 2985 ft | 154 kts | 346° |
| 2026-05-06 13:00 | -34.11746 | 151.22145 | 2993 ft | 145 kts | 343° |
| 2026-05-06 13:00 | -34.10751 | 151.21880 | 2861 ft | 144 kts | 344° |
| 2026-05-06 13:00 | -34.09782 | 151.21627 | 2684 ft | 140 kts | 344° |
| 2026-05-06 13:00 | -34.08834 | 151.21373 | 2500 ft | 140 kts | 343° |
| 2026-05-06 13:01 | -34.07905 | 151.21127 | 2331 ft | 139 kts | 345° |
| 2026-05-06 13:01 | -34.06946 | 151.20873 | 2138 ft | 139 kts | 344° |
| 2026-05-06 13:01 | -34.05999 | 151.20620 | 1948 ft | 138 kts | 345° |
| 2026-05-06 13:01 | -34.05066 | 151.20375 | 1758 ft | 136 kts | 345° |
| 2026-05-06 13:02 | -34.04169 | 151.20135 | 1589 ft | 136 kts | 345° |
| 2026-05-06 13:02 | -34.03220 | 151.19881 | 1405 ft | 138 kts | 344° |
| 2026-05-06 13:02 | -34.02279 | 151.19634 | 1214 ft | 139 kts | 346° |
| 2026-05-06 13:02 | -34.01319 | 151.19380 | 1027 ft | 139 kts | 345° |
| 2026-05-06 13:03 | -34.00397 | 151.19131 | 880 ft | 140 kts | 345° |
| 2026-05-06 13:03 | -33.99416 | 151.18844 | 786 ft | 143 kts | 345° |
| 2026-05-06 13:03 | -33.98450 | 151.18572 | 634 ft | 144 kts | 347° |
| 2026-05-06 13:03 | -33.97464 | 151.18330 | 365 ft | 144 kts | 346° |
| 2026-05-06 13:04 | -33.96498 | 151.18081 | 62 ft | 143 kts | 345° |
| 2026-05-06 13:04 | -33.95788 | 151.17872 | 26 ft | 116 kts | 348° |
| 2026-05-06 13:04 | -33.95181 | 151.17734 | 29 ft | 75 kts | 349° |
| 2026-05-06 13:04 | -33.94771 | 151.17631 | 28 ft | 55 kts | 347° |
| 2026-05-06 13:05 | -33.94624 | 151.17586 | 30 ft | 46 kts | 330° |
| 2026-05-06 13:05 | -33.94419 | 151.17449 | 29 ft | 24 kts | 317° |
| 2026-05-06 13:05 | -33.94394 | 151.17422 | 30 ft | 0 kts | 319° |
| 2026-05-06 13:06 | -33.94392 | 151.17420 | 30 ft | 6 kts | 319° |
| 2026-05-06 13:06 | -33.94287 | 151.17314 | 29 ft | 22 kts | 332° |
| 2026-05-06 13:06 | -33.94270 | 151.17305 | 28 ft | 0 kts | 340° |
| 2026-05-06 13:08 | -33.94268 | 151.17304 | 28 ft | 4 kts | 342° |
| 2026-05-06 13:08 | -33.94191 | 151.17280 | 27 ft | 19 kts | 347° |
| 2026-05-06 13:08 | -33.94018 | 151.17230 | 28 ft | 26 kts | 335° |
| 2026-05-06 13:08 | -33.93996 | 151.17122 | 26 ft | 18 kts | 254° |
| 2026-05-06 13:09 | -33.94045 | 151.16909 | 29 ft | 32 kts | 256° |
| 2026-05-06 13:09 | -33.93999 | 151.16720 | 31 ft | 9 kts | 298° |
| 2026-05-06 13:09 | -33.93994 | 151.16709 | 30 ft | 2 kts | 300° |
| 2026-05-06 13:09 | -33.93987 | 151.16696 | 30 ft | 0 kts | 302° |